sensor_id;sensor_type;location;lat;lon;timestamp;P1;durP1;ratioP1;P2;durP2;ratioP2
10174;SDS011;18221;38.704;0.152;2022-07-05T00:21:31;20.00;;;10.57;;
10174;SDS011;18221;38.704;0.152;2022-07-05T00:23:59;22.87;;;11.07;;
10174;SDS011;18221;38.704;0.152;2022-07-05T00:26:27;22.90;;;11.17;;
10174;SDS011;18221;38.704;0.152;2022-07-05T00:28:55;18.17;;;11.20;;
10174;SDS011;18221;38.704;0.152;2022-07-05T00:31:23;20.50;;;10.57;;
10174;SDS011;18221;38.704;0.152;2022-07-05T00:33:51;22.03;;;10.40;;
10174;SDS011;18221;38.704;0.152;2022-07-05T00:36:19;17.23;;;10.13;;
10174;SDS011;18221;38.704;0.152;2022-07-05T00:38:48;23.43;;;10.77;;
10174;SDS011;18221;38.704;0.152;2022-07-05T00:41:16;23.03;;;9.90;;
10174;SDS011;18221;38.704;0.152;2022-07-05T00:43:51;20.47;;;10.23;;
10174;SDS011;18221;38.704;0.152;2022-07-05T00:46:21;22.63;;;11.13;;
10174;SDS011;18221;38.704;0.152;2022-07-05T00:48:49;13.73;;;9.80;;
10174;SDS011;18221;38.704;0.152;2022-07-05T00:51:17;18.50;;;9.40;;
10174;SDS011;18221;38.704;0.152;2022-07-05T00:53:48;24.83;;;10.33;;
10174;SDS011;18221;38.704;0.152;2022-07-05T00:56:17;20.53;;;9.63;;
10174;SDS011;18221;38.704;0.152;2022-07-05T00:58:46;21.60;;;10.37;;
10174;SDS011;18221;38.704;0.152;2022-07-05T01:01:15;20.37;;;10.67;;
10174;SDS011;18221;38.704;0.152;2022-07-05T01:03:44;21.70;;;10.47;;
10174;SDS011;18221;38.704;0.152;2022-07-05T01:06:13;22.27;;;10.70;;
10174;SDS011;18221;38.704;0.152;2022-07-05T01:08:43;19.80;;;10.80;;
10174;SDS011;18221;38.704;0.152;2022-07-05T01:11:15;21.23;;;10.13;;
10174;SDS011;18221;38.704;0.152;2022-07-05T01:13:43;27.90;;;12.03;;
10174;SDS011;18221;38.704;0.152;2022-07-05T01:16:12;21.57;;;11.37;;
10174;SDS011;18221;38.704;0.152;2022-07-05T01:18:41;25.10;;;11.00;;
10174;SDS011;18221;38.704;0.152;2022-07-05T01:21:10;21.50;;;11.00;;
10174;SDS011;18221;38.704;0.152;2022-07-05T01:23:46;29.37;;;11.77;;
10174;SDS011;18221;38.704;0.152;2022-07-05T01:26:16;23.03;;;10.80;;
10174;SDS011;18221;38.704;0.152;2022-07-05T01:28:44;26.53;;;10.87;;
10174;SDS011;18221;38.704;0.152;2022-07-05T01:31:12;26.23;;;11.60;;
10174;SDS011;18221;38.704;0.152;2022-07-05T01:33:41;21.23;;;10.60;;
10174;SDS011;18221;38.704;0.152;2022-07-05T01:36:10;28.07;;;11.47;;
10174;SDS011;18221;38.704;0.152;2022-07-05T01:38:39;29.40;;;12.30;;
10174;SDS011;18221;38.704;0.152;2022-07-05T01:41:09;28.80;;;11.90;;
10174;SDS011;18221;38.704;0.152;2022-07-05T01:43:37;34.87;;;12.57;;
10174;SDS011;18221;38.704;0.152;2022-07-05T01:46:05;28.63;;;12.63;;
10174;SDS011;18221;38.704;0.152;2022-07-05T01:48:37;38.47;;;13.50;;
10174;SDS011;18221;38.704;0.152;2022-07-05T01:51:09;26.57;;;11.90;;
10174;SDS011;18221;38.704;0.152;2022-07-05T01:53:48;29.43;;;13.40;;
10174;SDS011;18221;38.704;0.152;2022-07-05T01:56:21;27.90;;;13.70;;
10174;SDS011;18221;38.704;0.152;2022-07-05T01:58:49;37.07;;;14.70;;
10174;SDS011;18221;38.704;0.152;2022-07-05T02:01:31;28.10;;;12.83;;
10174;SDS011;18221;38.704;0.152;2022-07-05T02:04:01;25.83;;;11.87;;
10174;SDS011;18221;38.704;0.152;2022-07-05T02:06:31;25.87;;;12.30;;
10174;SDS011;18221;38.704;0.152;2022-07-05T02:08:59;19.57;;;11.13;;
10174;SDS011;18221;38.704;0.152;2022-07-05T02:11:29;27.90;;;12.10;;
10174;SDS011;18221;38.704;0.152;2022-07-05T02:13:57;27.40;;;12.03;;
10174;SDS011;18221;38.704;0.152;2022-07-05T02:16:26;22.50;;;11.40;;
10174;SDS011;18221;38.704;0.152;2022-07-05T02:18:55;29.00;;;12.33;;
10174;SDS011;18221;38.704;0.152;2022-07-05T02:21:23;17.23;;;10.93;;
10174;SDS011;18221;38.704;0.152;2022-07-05T02:23:51;22.10;;;11.57;;
10174;SDS011;18221;38.704;0.152;2022-07-05T02:26:19;25.30;;;11.90;;
10174;SDS011;18221;38.704;0.152;2022-07-05T02:28:48;28.03;;;12.20;;
10174;SDS011;18221;38.704;0.152;2022-07-05T02:31:16;25.97;;;12.40;;
10174;SDS011;18221;38.704;0.152;2022-07-05T02:33:45;28.13;;;13.07;;
10174;SDS011;18221;38.704;0.152;2022-07-05T02:36:13;33.13;;;13.43;;
10174;SDS011;18221;38.704;0.152;2022-07-05T02:38:41;19.03;;;11.70;;
10174;SDS011;18221;38.704;0.152;2022-07-05T02:41:11;23.60;;;12.40;;
10174;SDS011;18221;38.704;0.152;2022-07-05T02:43:39;19.87;;;10.50;;
10174;SDS011;18221;38.704;0.152;2022-07-05T02:46:09;23.60;;;11.83;;
10174;SDS011;18221;38.704;0.152;2022-07-05T02:48:37;20.47;;;12.33;;
10174;SDS011;18221;38.704;0.152;2022-07-05T02:51:05;17.97;;;11.13;;
10174;SDS011;18221;38.704;0.152;2022-07-05T02:53:33;24.47;;;11.90;;
10174;SDS011;18221;38.704;0.152;2022-07-05T02:56:01;21.53;;;12.03;;
10174;SDS011;18221;38.704;0.152;2022-07-05T02:58:29;16.33;;;11.97;;
10174;SDS011;18221;38.704;0.152;2022-07-05T03:00:57;22.27;;;12.40;;
10174;SDS011;18221;38.704;0.152;2022-07-05T03:03:27;23.57;;;12.50;;
10174;SDS011;18221;38.704;0.152;2022-07-05T03:05:55;22.73;;;13.97;;
10174;SDS011;18221;38.704;0.152;2022-07-05T03:08:23;20.83;;;13.40;;
10174;SDS011;18221;38.704;0.152;2022-07-05T03:10:50;23.03;;;12.87;;
10174;SDS011;18221;38.704;0.152;2022-07-05T03:13:18;24.90;;;13.27;;
10174;SDS011;18221;38.704;0.152;2022-07-05T03:15:46;22.03;;;12.03;;
10174;SDS011;18221;38.704;0.152;2022-07-05T03:18:14;17.17;;;12.07;;
10174;SDS011;18221;38.704;0.152;2022-07-05T03:20:43;21.50;;;12.47;;
10174;SDS011;18221;38.704;0.152;2022-07-05T03:23:11;17.13;;;12.60;;
10174;SDS011;18221;38.704;0.152;2022-07-05T03:25:39;17.70;;;11.87;;
10174;SDS011;18221;38.704;0.152;2022-07-05T03:28:07;20.07;;;12.00;;
10174;SDS011;18221;38.704;0.152;2022-07-05T03:30:35;23.57;;;13.43;;
10174;SDS011;18221;38.704;0.152;2022-07-05T03:33:03;19.60;;;13.47;;
10174;SDS011;18221;38.704;0.152;2022-07-05T03:35:31;19.40;;;13.40;;
10174;SDS011;18221;38.704;0.152;2022-07-05T03:38:00;19.37;;;12.07;;
10174;SDS011;18221;38.704;0.152;2022-07-05T03:40:28;17.73;;;13.03;;
10174;SDS011;18221;38.704;0.152;2022-07-05T03:42:56;18.83;;;13.63;;
10174;SDS011;18221;38.704;0.152;2022-07-05T03:45:24;16.57;;;12.17;;
10174;SDS011;18221;38.704;0.152;2022-07-05T03:47:52;16.53;;;10.90;;
10174;SDS011;18221;38.704;0.152;2022-07-05T03:50:24;13.70;;;10.47;;
10174;SDS011;18221;38.704;0.152;2022-07-05T03:52:53;11.87;;;9.97;;
10174;SDS011;18221;38.704;0.152;2022-07-05T03:55:22;14.57;;;10.17;;
10174;SDS011;18221;38.704;0.152;2022-07-05T03:57:50;12.87;;;10.20;;
10174;SDS011;18221;38.704;0.152;2022-07-05T04:00:18;16.20;;;10.50;;
10174;SDS011;18221;38.704;0.152;2022-07-05T04:02:46;19.67;;;10.47;;
10174;SDS011;18221;38.704;0.152;2022-07-05T04:05:14;18.87;;;11.33;;
10174;SDS011;18221;38.704;0.152;2022-07-05T04:07:48;17.23;;;10.50;;
10174;SDS011;18221;38.704;0.152;2022-07-05T04:10:17;19.27;;;10.37;;
10174;SDS011;18221;38.704;0.152;2022-07-05T04:12:47;14.13;;;10.73;;
10174;SDS011;18221;38.704;0.152;2022-07-05T04:15:15;18.03;;;11.47;;
10174;SDS011;18221;38.704;0.152;2022-07-05T04:17:46;16.90;;;11.30;;
10174;SDS011;18221;38.704;0.152;2022-07-05T04:20:16;18.77;;;11.13;;
10174;SDS011;18221;38.704;0.152;2022-07-05T04:22:44;15.67;;;11.87;;
10174;SDS011;18221;38.704;0.152;2022-07-05T04:25:12;16.57;;;11.60;;
10174;SDS011;18221;38.704;0.152;2022-07-05T04:27:43;18.63;;;11.80;;
10174;SDS011;18221;38.704;0.152;2022-07-05T04:30:13;14.70;;;11.43;;
10174;SDS011;18221;38.704;0.152;2022-07-05T04:32:42;21.10;;;12.73;;
10174;SDS011;18221;38.704;0.152;2022-07-05T04:35:11;17.03;;;12.30;;
10174;SDS011;18221;38.704;0.152;2022-07-05T04:37:40;16.87;;;11.93;;
10174;SDS011;18221;38.704;0.152;2022-07-05T04:40:10;20.27;;;12.60;;
10174;SDS011;18221;38.704;0.152;2022-07-05T04:42:40;19.33;;;12.20;;
10174;SDS011;18221;38.704;0.152;2022-07-05T04:45:08;17.00;;;12.20;;
10174;SDS011;18221;38.704;0.152;2022-07-05T04:47:38;16.80;;;11.70;;
10174;SDS011;18221;38.704;0.152;2022-07-05T04:50:06;21.20;;;11.23;;
10174;SDS011;18221;38.704;0.152;2022-07-05T04:52:35;20.10;;;11.17;;
10174;SDS011;18221;38.704;0.152;2022-07-05T04:55:03;19.20;;;10.53;;
10174;SDS011;18221;38.704;0.152;2022-07-05T04:57:36;21.37;;;10.77;;
10174;SDS011;18221;38.704;0.152;2022-07-05T05:00:05;20.10;;;10.47;;
10174;SDS011;18221;38.704;0.152;2022-07-05T05:02:36;17.90;;;10.47;;
10174;SDS011;18221;38.704;0.152;2022-07-05T05:05:05;20.40;;;10.13;;
10174;SDS011;18221;38.704;0.152;2022-07-05T05:07:34;15.60;;;9.37;;
10174;SDS011;18221;38.704;0.152;2022-07-05T05:10:05;17.20;;;10.07;;
10174;SDS011;18221;38.704;0.152;2022-07-05T05:12:34;19.83;;;10.07;;
10174;SDS011;18221;38.704;0.152;2022-07-05T05:15:02;17.23;;;10.67;;
10174;SDS011;18221;38.704;0.152;2022-07-05T05:17:34;17.60;;;9.93;;
10174;SDS011;18221;38.704;0.152;2022-07-05T05:20:06;23.73;;;10.57;;
10174;SDS011;18221;38.704;0.152;2022-07-05T05:22:38;16.87;;;10.40;;
10174;SDS011;18221;38.704;0.152;2022-07-05T05:25:06;22.67;;;11.07;;
10174;SDS011;18221;38.704;0.152;2022-07-05T05:27:39;21.13;;;10.63;;
10174;SDS011;18221;38.704;0.152;2022-07-05T05:30:09;19.23;;;10.83;;
10174;SDS011;18221;38.704;0.152;2022-07-05T05:32:39;19.90;;;12.57;;
10174;SDS011;18221;38.704;0.152;2022-07-05T05:35:09;21.37;;;12.87;;
10174;SDS011;18221;38.704;0.152;2022-07-05T05:37:46;21.10;;;11.70;;
10174;SDS011;18221;38.704;0.152;2022-07-05T05:40:16;23.63;;;12.00;;
10174;SDS011;18221;38.704;0.152;2022-07-05T05:42:45;18.30;;;12.40;;
10174;SDS011;18221;38.704;0.152;2022-07-05T05:45:13;22.43;;;12.73;;
10174;SDS011;18221;38.704;0.152;2022-07-05T05:47:48;19.80;;;11.67;;
10174;SDS011;18221;38.704;0.152;2022-07-05T05:50:20;20.23;;;12.90;;
10174;SDS011;18221;38.704;0.152;2022-07-05T05:52:50;25.13;;;12.83;;
10174;SDS011;18221;38.704;0.152;2022-07-05T05:55:19;20.80;;;12.87;;
10174;SDS011;18221;38.704;0.152;2022-07-05T05:57:50;22.00;;;13.07;;
10174;SDS011;18221;38.704;0.152;2022-07-05T06:00:19;19.90;;;13.00;;
10174;SDS011;18221;38.704;0.152;2022-07-05T06:02:48;18.53;;;12.17;;
10174;SDS011;18221;38.704;0.152;2022-07-05T06:05:17;23.73;;;12.50;;
10174;SDS011;18221;38.704;0.152;2022-07-05T06:07:48;17.97;;;12.37;;
10174;SDS011;18221;38.704;0.152;2022-07-05T06:10:19;18.40;;;12.10;;
10174;SDS011;18221;38.704;0.152;2022-07-05T06:12:49;18.23;;;11.43;;
10174;SDS011;18221;38.704;0.152;2022-07-05T06:15:19;17.50;;;10.83;;
10174;SDS011;18221;38.704;0.152;2022-07-05T06:17:48;18.70;;;11.63;;
10174;SDS011;18221;38.704;0.152;2022-07-05T06:20:17;23.37;;;11.23;;
10174;SDS011;18221;38.704;0.152;2022-07-05T06:22:49;20.30;;;10.97;;
10174;SDS011;18221;38.704;0.152;2022-07-05T06:25:18;17.87;;;10.70;;
10174;SDS011;18221;38.704;0.152;2022-07-05T06:27:47;25.20;;;10.77;;
10174;SDS011;18221;38.704;0.152;2022-07-05T06:30:18;25.87;;;11.33;;
10174;SDS011;18221;38.704;0.152;2022-07-05T06:32:48;21.83;;;10.43;;
10174;SDS011;18221;38.704;0.152;2022-07-05T06:35:16;20.93;;;9.73;;
10174;SDS011;18221;38.704;0.152;2022-07-05T06:37:47;22.17;;;10.30;;
10174;SDS011;18221;38.704;0.152;2022-07-05T06:40:18;20.40;;;9.87;;
10174;SDS011;18221;38.704;0.152;2022-07-05T06:42:49;21.40;;;11.17;;
10174;SDS011;18221;38.704;0.152;2022-07-05T06:45:18;18.67;;;11.00;;
10174;SDS011;18221;38.704;0.152;2022-07-05T06:47:53;24.13;;;10.97;;
10174;SDS011;18221;38.704;0.152;2022-07-05T06:50:22;20.97;;;11.83;;
10174;SDS011;18221;38.704;0.152;2022-07-05T06:52:52;21.67;;;11.23;;
10174;SDS011;18221;38.704;0.152;2022-07-05T06:55:20;22.27;;;11.70;;
10174;SDS011;18221;38.704;0.152;2022-07-05T06:57:55;21.70;;;11.23;;
10174;SDS011;18221;38.704;0.152;2022-07-05T07:00:25;25.13;;;11.77;;
10174;SDS011;18221;38.704;0.152;2022-07-05T07:02:54;21.00;;;10.63;;
10174;SDS011;18221;38.704;0.152;2022-07-05T07:05:22;23.97;;;10.83;;
10174;SDS011;18221;38.704;0.152;2022-07-05T07:07:52;24.07;;;11.80;;
10174;SDS011;18221;38.704;0.152;2022-07-05T07:10:38;20.30;;;11.93;;
10174;SDS011;18221;38.704;0.152;2022-07-05T07:13:06;27.17;;;12.07;;
10174;SDS011;18221;38.704;0.152;2022-07-05T07:15:34;25.37;;;12.03;;
10174;SDS011;18221;38.704;0.152;2022-07-05T07:18:03;26.47;;;12.63;;
10174;SDS011;18221;38.704;0.152;2022-07-05T07:20:31;23.20;;;10.90;;
10174;SDS011;18221;38.704;0.152;2022-07-05T07:23:00;23.60;;;10.07;;
10174;SDS011;18221;38.704;0.152;2022-07-05T07:25:28;20.73;;;9.67;;
10174;SDS011;18221;38.704;0.152;2022-07-05T07:27:56;25.73;;;10.03;;
10174;SDS011;18221;38.704;0.152;2022-07-05T07:30:25;23.47;;;9.63;;
10174;SDS011;18221;38.704;0.152;2022-07-05T07:32:55;26.67;;;9.57;;
10174;SDS011;18221;38.704;0.152;2022-07-05T07:35:23;22.87;;;9.03;;
10174;SDS011;18221;38.704;0.152;2022-07-05T07:37:51;19.97;;;8.57;;
10174;SDS011;18221;38.704;0.152;2022-07-05T07:40:20;21.10;;;8.67;;
10174;SDS011;18221;38.704;0.152;2022-07-05T07:42:48;19.03;;;7.70;;
10174;SDS011;18221;38.704;0.152;2022-07-05T07:45:16;16.33;;;7.60;;
10174;SDS011;18221;38.704;0.152;2022-07-05T07:47:44;18.03;;;6.70;;
10174;SDS011;18221;38.704;0.152;2022-07-05T07:50:12;18.83;;;6.60;;
10174;SDS011;18221;38.704;0.152;2022-07-05T07:52:40;14.83;;;6.27;;
10174;SDS011;18221;38.704;0.152;2022-07-05T07:55:08;18.00;;;6.10;;
10174;SDS011;18221;38.704;0.152;2022-07-05T07:57:37;17.90;;;6.00;;
10174;SDS011;18221;38.704;0.152;2022-07-05T08:00:05;12.87;;;5.90;;
10174;SDS011;18221;38.704;0.152;2022-07-05T08:02:35;16.47;;;5.87;;
10174;SDS011;18221;38.704;0.152;2022-07-05T08:05:03;9.90;;;5.43;;
10174;SDS011;18221;38.704;0.152;2022-07-05T08:07:34;13.87;;;5.37;;
10174;SDS011;18221;38.704;0.152;2022-07-05T08:10:03;15.13;;;5.57;;
10174;SDS011;18221;38.704;0.152;2022-07-05T08:12:31;13.70;;;5.73;;
10174;SDS011;18221;38.704;0.152;2022-07-05T08:15:01;20.33;;;5.70;;
10174;SDS011;18221;38.704;0.152;2022-07-05T08:17:29;14.50;;;5.07;;
10174;SDS011;18221;38.704;0.152;2022-07-05T08:19:57;13.33;;;4.73;;
10174;SDS011;18221;38.704;0.152;2022-07-05T08:22:42;14.27;;;5.27;;
10174;SDS011;18221;38.704;0.152;2022-07-05T08:25:10;19.27;;;5.20;;
10174;SDS011;18221;38.704;0.152;2022-07-05T08:27:39;13.77;;;4.80;;
10174;SDS011;18221;38.704;0.152;2022-07-05T08:30:10;12.23;;;4.97;;
10174;SDS011;18221;38.704;0.152;2022-07-05T08:32:38;13.97;;;4.73;;
10174;SDS011;18221;38.704;0.152;2022-07-05T08:35:07;12.20;;;4.40;;
10174;SDS011;18221;38.704;0.152;2022-07-05T08:37:35;12.18;;;4.57;;
10174;SDS011;18221;38.704;0.152;2022-07-05T08:40:03;9.77;;;4.20;;
10174;SDS011;18221;38.704;0.152;2022-07-05T08:42:36;14.48;;;4.60;;
10174;SDS011;18221;38.704;0.152;2022-07-05T08:45:05;10.40;;;4.00;;
10174;SDS011;18221;38.704;0.152;2022-07-05T08:47:38;12.55;;;4.47;;
10174;SDS011;18221;38.704;0.152;2022-07-05T08:50:08;12.63;;;4.40;;
10174;SDS011;18221;38.704;0.152;2022-07-05T08:52:39;8.88;;;3.90;;
10174;SDS011;18221;38.704;0.152;2022-07-05T08:55:08;11.93;;;3.72;;
10174;SDS011;18221;38.704;0.152;2022-07-05T08:57:38;14.57;;;3.72;;
10174;SDS011;18221;38.704;0.152;2022-07-05T09:00:06;11.50;;;3.72;;
10174;SDS011;18221;38.704;0.152;2022-07-05T09:02:39;12.80;;;3.58;;
10174;SDS011;18221;38.704;0.152;2022-07-05T09:05:07;10.45;;;3.70;;
10174;SDS011;18221;38.704;0.152;2022-07-05T09:07:40;11.85;;;3.28;;
10174;SDS011;18221;38.704;0.152;2022-07-05T09:10:22;8.85;;;3.60;;
10174;SDS011;18221;38.704;0.152;2022-07-05T09:12:53;9.00;;;3.05;;
10174;SDS011;18221;38.704;0.152;2022-07-05T09:15:24;8.52;;;3.10;;
10174;SDS011;18221;38.704;0.152;2022-07-05T09:17:52;9.95;;;3.30;;
10174;SDS011;18221;38.704;0.152;2022-07-05T09:20:20;13.23;;;3.13;;
10174;SDS011;18221;38.704;0.152;2022-07-05T09:22:48;12.50;;;3.28;;
10174;SDS011;18221;38.704;0.152;2022-07-05T09:25:19;10.30;;;3.30;;
10174;SDS011;18221;38.704;0.152;2022-07-05T09:27:50;9.65;;;3.65;;
10174;SDS011;18221;38.704;0.152;2022-07-05T09:30:26;8.43;;;3.30;;
10174;SDS011;18221;38.704;0.152;2022-07-05T09:33:01;12.93;;;3.58;;
10174;SDS011;18221;38.704;0.152;2022-07-05T09:35:34;10.95;;;3.05;;
10174;SDS011;18221;38.704;0.152;2022-07-05T09:38:04;10.00;;;3.60;;
10174;SDS011;18221;38.704;0.152;2022-07-05T09:40:45;11.75;;;3.28;;
10174;SDS011;18221;38.704;0.152;2022-07-05T09:43:15;15.20;;;3.50;;
10174;SDS011;18221;38.704;0.152;2022-07-05T09:45:53;12.35;;;3.35;;
10174;SDS011;18221;38.704;0.152;2022-07-05T09:48:24;12.38;;;3.42;;
10174;SDS011;18221;38.704;0.152;2022-07-05T09:50:55;14.77;;;3.70;;
10174;SDS011;18221;38.704;0.152;2022-07-05T09:53:45;18.48;;;3.72;;
10174;SDS011;18221;38.704;0.152;2022-07-05T09:56:14;12.80;;;3.00;;
10174;SDS011;18221;38.704;0.152;2022-07-05T09:58:42;14.88;;;3.30;;
10174;SDS011;18221;38.704;0.152;2022-07-05T10:01:25;13.07;;;3.35;;
10174;SDS011;18221;38.704;0.152;2022-07-05T10:03:54;11.00;;;2.85;;
10174;SDS011;18221;38.704;0.152;2022-07-05T10:06:24;8.73;;;2.97;;
10174;SDS011;18221;38.704;0.152;2022-07-05T10:08:53;7.65;;;3.05;;
10174;SDS011;18221;38.704;0.152;2022-07-05T10:11:21;10.68;;;2.83;;
10174;SDS011;18221;38.704;0.152;2022-07-05T10:13:51;15.68;;;3.08;;
10174;SDS011;18221;38.704;0.152;2022-07-05T10:16:20;10.68;;;3.13;;
10174;SDS011;18221;38.704;0.152;2022-07-05T10:18:51;10.10;;;2.90;;
10174;SDS011;18221;38.704;0.152;2022-07-05T10:21:23;10.05;;;3.20;;
10174;SDS011;18221;38.704;0.152;2022-07-05T10:23:52;8.77;;;2.90;;
10174;SDS011;18221;38.704;0.152;2022-07-05T10:26:21;13.48;;;3.40;;
10174;SDS011;18221;38.704;0.152;2022-07-05T10:28:51;12.13;;;2.80;;
10174;SDS011;18221;38.704;0.152;2022-07-05T10:31:21;10.68;;;2.92;;
10174;SDS011;18221;38.704;0.152;2022-07-05T10:33:52;7.25;;;2.70;;
10174;SDS011;18221;38.704;0.152;2022-07-05T10:36:22;7.60;;;2.80;;
10174;SDS011;18221;38.704;0.152;2022-07-05T10:38:50;10.68;;;3.00;;
10174;SDS011;18221;38.704;0.152;2022-07-05T10:41:21;10.65;;;3.10;;
10174;SDS011;18221;38.704;0.152;2022-07-05T10:43:52;8.90;;;2.75;;
10174;SDS011;18221;38.704;0.152;2022-07-05T10:46:32;13.93;;;3.13;;
10174;SDS011;18221;38.704;0.152;2022-07-05T10:49:11;9.90;;;2.80;;
10174;SDS011;18221;38.704;0.152;2022-07-05T10:51:43;10.77;;;2.88;;
10174;SDS011;18221;38.704;0.152;2022-07-05T10:54:11;9.00;;;2.40;;
10174;SDS011;18221;38.704;0.152;2022-07-05T10:56:38;8.90;;;2.75;;
10174;SDS011;18221;38.704;0.152;2022-07-05T10:59:07;7.53;;;2.83;;
10174;SDS011;18221;38.704;0.152;2022-07-05T11:01:37;8.07;;;2.72;;
10174;SDS011;18221;38.704;0.152;2022-07-05T11:07:03;7.88;;;2.72;;
10174;SDS011;18221;38.704;0.152;2022-07-05T11:09:33;7.97;;;3.10;;
10174;SDS011;18221;38.704;0.152;2022-07-05T11:14:45;9.52;;;2.42;;
10174;SDS011;18221;38.704;0.152;2022-07-05T11:17:22;8.05;;;2.30;;
10174;SDS011;18221;38.704;0.152;2022-07-05T11:20:00;10.30;;;2.60;;
10174;SDS011;18221;38.704;0.152;2022-07-05T11:23:02;6.45;;;2.30;;
10174;SDS011;18221;38.704;0.152;2022-07-05T11:25:39;10.25;;;2.60;;
10174;SDS011;18221;38.704;0.152;2022-07-05T11:28:15;10.30;;;2.90;;
10174;SDS011;18221;38.704;0.152;2022-07-05T11:30:52;6.90;;;2.33;;
10174;SDS011;18221;38.704;0.152;2022-07-05T11:33:34;9.65;;;2.63;;
10174;SDS011;18221;38.704;0.152;2022-07-05T11:36:18;9.27;;;2.75;;
10174;SDS011;18221;38.704;0.152;2022-07-05T11:39:07;7.88;;;2.60;;
10174;SDS011;18221;38.704;0.152;2022-07-05T11:41:42;10.05;;;2.80;;
10174;SDS011;18221;38.704;0.152;2022-07-05T11:44:12;9.60;;;2.70;;
10174;SDS011;18221;38.704;0.152;2022-07-05T11:46:40;10.93;;;3.30;;
10174;SDS011;18221;38.704;0.152;2022-07-05T11:49:09;10.30;;;3.63;;
10174;SDS011;18221;38.704;0.152;2022-07-05T11:51:39;8.02;;;3.33;;
10174;SDS011;18221;38.704;0.152;2022-07-05T11:54:08;11.40;;;3.35;;
10174;SDS011;18221;38.704;0.152;2022-07-05T11:56:37;13.48;;;3.08;;
10174;SDS011;18221;38.704;0.152;2022-07-05T11:59:16;12.00;;;3.25;;
10174;SDS011;18221;38.704;0.152;2022-07-05T12:01:45;12.65;;;3.10;;
10174;SDS011;18221;38.704;0.152;2022-07-05T12:04:20;10.80;;;2.70;;
10174;SDS011;18221;38.704;0.152;2022-07-05T12:06:50;12.68;;;3.35;;
10174;SDS011;18221;38.704;0.152;2022-07-05T12:09:22;8.48;;;3.13;;
10174;SDS011;18221;38.704;0.152;2022-07-05T12:11:51;13.73;;;3.33;;
10174;SDS011;18221;38.704;0.152;2022-07-05T12:14:37;13.57;;;3.13;;
10174;SDS011;18221;38.704;0.152;2022-07-05T12:17:14;9.93;;;3.00;;
10174;SDS011;18221;38.704;0.152;2022-07-05T12:19:44;13.52;;;3.53;;
10174;SDS011;18221;38.704;0.152;2022-07-05T12:22:13;10.75;;;3.20;;
10174;SDS011;18221;38.704;0.152;2022-07-05T12:24:41;12.65;;;3.90;;
10174;SDS011;18221;38.704;0.152;2022-07-05T12:27:09;12.98;;;3.20;;
10174;SDS011;18221;38.704;0.152;2022-07-05T12:29:38;14.23;;;3.53;;
10174;SDS011;18221;38.704;0.152;2022-07-05T12:32:06;9.82;;;3.13;;
10174;SDS011;18221;38.704;0.152;2022-07-05T12:34:35;15.48;;;3.25;;
10174;SDS011;18221;38.704;0.152;2022-07-05T12:37:03;15.27;;;3.47;;
10174;SDS011;18221;38.704;0.152;2022-07-05T12:39:33;10.80;;;3.38;;
10174;SDS011;18221;38.704;0.152;2022-07-05T12:42:01;11.27;;;3.08;;
10174;SDS011;18221;38.704;0.152;2022-07-05T12:44:30;9.75;;;3.17;;
10174;SDS011;18221;38.704;0.152;2022-07-05T12:47:02;13.05;;;3.50;;
10174;SDS011;18221;38.704;0.152;2022-07-05T12:49:31;9.52;;;2.97;;
10174;SDS011;18221;38.704;0.152;2022-07-05T12:52:19;9.93;;;3.08;;
10174;SDS011;18221;38.704;0.152;2022-07-05T12:54:49;7.65;;;3.17;;
10174;SDS011;18221;38.704;0.152;2022-07-05T12:57:54;7.85;;;3.03;;
10174;SDS011;18221;38.704;0.152;2022-07-05T13:00:28;8.63;;;3.58;;
10174;SDS011;18221;38.704;0.152;2022-07-05T13:02:56;8.90;;;3.08;;
10174;SDS011;18221;38.704;0.152;2022-07-05T13:05:25;11.52;;;3.50;;
10174;SDS011;18221;38.704;0.152;2022-07-05T13:07:54;8.32;;;3.30;;
10174;SDS011;18221;38.704;0.152;2022-07-05T13:10:23;7.88;;;3.40;;
10174;SDS011;18221;38.704;0.152;2022-07-05T13:12:57;10.85;;;3.58;;
10174;SDS011;18221;38.704;0.152;2022-07-05T13:15:25;7.65;;;3.10;;
10174;SDS011;18221;38.704;0.152;2022-07-05T13:17:53;11.32;;;3.30;;
10174;SDS011;18221;38.704;0.152;2022-07-05T13:20:20;8.88;;;3.05;;
10174;SDS011;18221;38.704;0.152;2022-07-05T13:22:48;12.80;;;3.42;;
10174;SDS011;18221;38.704;0.152;2022-07-05T13:25:16;9.02;;;2.92;;
10174;SDS011;18221;38.704;0.152;2022-07-05T13:27:46;13.48;;;3.75;;
10174;SDS011;18221;38.704;0.152;2022-07-05T13:30:14;7.93;;;3.28;;
10174;SDS011;18221;38.704;0.152;2022-07-05T13:32:41;9.55;;;3.38;;
10174;SDS011;18221;38.704;0.152;2022-07-05T13:35:09;11.27;;;3.30;;
10174;SDS011;18221;38.704;0.152;2022-07-05T13:37:37;11.50;;;3.40;;
10174;SDS011;18221;38.704;0.152;2022-07-05T13:40:06;16.50;;;3.40;;
10174;SDS011;18221;38.704;0.152;2022-07-05T13:42:35;16.88;;;4.15;;
10174;SDS011;18221;38.704;0.152;2022-07-05T13:45:05;10.52;;;3.47;;
10174;SDS011;18221;38.704;0.152;2022-07-05T13:47:35;10.13;;;3.67;;
10174;SDS011;18221;38.704;0.152;2022-07-05T13:50:03;13.77;;;3.85;;
10174;SDS011;18221;38.704;0.152;2022-07-05T13:52:48;8.23;;;3.30;;
10174;SDS011;18221;38.704;0.152;2022-07-05T13:55:16;9.95;;;3.42;;
10174;SDS011;18221;38.704;0.152;2022-07-05T13:57:44;13.48;;;3.08;;
10174;SDS011;18221;38.704;0.152;2022-07-05T14:00:14;5.65;;;3.03;;
10174;SDS011;18221;38.704;0.152;2022-07-05T14:02:43;10.05;;;3.03;;
10174;SDS011;18221;38.704;0.152;2022-07-05T14:05:11;11.20;;;3.47;;
10174;SDS011;18221;38.704;0.152;2022-07-05T14:07:41;11.82;;;2.97;;
10174;SDS011;18221;38.704;0.152;2022-07-05T14:10:09;11.40;;;3.50;;
10174;SDS011;18221;38.704;0.152;2022-07-05T14:12:37;12.15;;;3.50;;
10174;SDS011;18221;38.704;0.152;2022-07-05T14:15:06;12.30;;;3.40;;
10174;SDS011;18221;38.704;0.152;2022-07-05T14:17:36;9.48;;;3.35;;
10174;SDS011;18221;38.704;0.152;2022-07-05T14:20:05;11.45;;;3.30;;
10174;SDS011;18221;38.704;0.152;2022-07-05T14:22:34;15.25;;;3.47;;
10174;SDS011;18221;38.704;0.152;2022-07-05T14:25:02;10.73;;;3.13;;
10174;SDS011;18221;38.704;0.152;2022-07-05T14:27:31;14.70;;;3.22;;
10174;SDS011;18221;38.704;0.152;2022-07-05T14:29:59;14.55;;;3.20;;
10174;SDS011;18221;38.704;0.152;2022-07-05T14:32:28;12.45;;;3.30;;
10174;SDS011;18221;38.704;0.152;2022-07-05T14:34:57;6.90;;;3.42;;
10174;SDS011;18221;38.704;0.152;2022-07-05T14:37:25;10.38;;;3.15;;
10174;SDS011;18221;38.704;0.152;2022-07-05T14:39:53;11.20;;;3.28;;
10174;SDS011;18221;38.704;0.152;2022-07-05T14:42:21;12.75;;;3.45;;
10174;SDS011;18221;38.704;0.152;2022-07-05T14:44:49;9.73;;;3.35;;
10174;SDS011;18221;38.704;0.152;2022-07-05T14:47:17;11.93;;;2.90;;
10174;SDS011;18221;38.704;0.152;2022-07-05T14:49:45;12.32;;;3.15;;
10174;SDS011;18221;38.704;0.152;2022-07-05T14:52:14;12.85;;;3.13;;
10174;SDS011;18221;38.704;0.152;2022-07-05T14:54:42;9.10;;;2.95;;
10174;SDS011;18221;38.704;0.152;2022-07-05T14:57:10;10.32;;;2.85;;
10174;SDS011;18221;38.704;0.152;2022-07-05T14:59:38;9.98;;;3.10;;
10174;SDS011;18221;38.704;0.152;2022-07-05T15:02:07;12.95;;;3.05;;
10174;SDS011;18221;38.704;0.152;2022-07-05T15:04:35;11.18;;;3.03;;
10174;SDS011;18221;38.704;0.152;2022-07-05T15:07:03;16.20;;;3.20;;
10174;SDS011;18221;38.704;0.152;2022-07-05T15:09:33;12.90;;;3.45;;
10174;SDS011;18221;38.704;0.152;2022-07-05T15:12:01;12.48;;;3.20;;
10174;SDS011;18221;38.704;0.152;2022-07-05T15:14:30;11.10;;;3.25;;